< < Back
Terminal Aerodrome Forecast


Current Version              Previous Versions:   1  2  3  4  5  6  7  8  9  

Terminal Aerodrome Forecast

732
FTUS44 KBMX 302300
TAFMGM
TAF
KMGM 302333Z 3100/3124 35005KT P6SM SCT250=



Latest METAR

248
SAUS80 KWBC 310700
MTRMGM
METAR KMGM 310653Z AUTO 00000KT 10SM CLR 19/16 A3002 RMK AO2 SLP161
T01890161


USA.gov is the U.S. government's official web portal to all federal, state and local government web resources and services.